createdAt,value
2024-04-10T00:00:18.115Z,606.00
2024-04-10T00:01:18.112Z,608.00
2024-04-10T00:02:18.208Z,606.00
2024-04-10T00:03:20.584Z,607.00
2024-04-10T00:04:18.332Z,608.00
2024-04-10T00:05:18.635Z,605.00
2024-04-10T00:06:18.256Z,604.00
2024-04-10T00:07:18.251Z,603.00
2024-04-10T00:08:18.227Z,604.00
2024-04-10T00:09:18.234Z,603.00
2024-04-10T00:10:18.242Z,606.00
2024-04-10T00:11:18.263Z,602.00
2024-04-10T00:12:18.239Z,600.00
2024-04-10T00:13:18.189Z,611.00
2024-04-10T00:14:18.249Z,602.00
2024-04-10T00:15:18.187Z,602.00
2024-04-10T00:16:18.212Z,605.00
2024-04-10T00:17:18.275Z,610.00
2024-04-10T00:18:18.346Z,603.00
2024-04-10T00:19:18.330Z,604.00
2024-04-10T00:20:18.374Z,604.00
2024-04-10T00:21:18.213Z,605.00
2024-04-10T00:22:18.206Z,601.00
2024-04-10T00:23:18.292Z,606.00
2024-04-10T00:24:18.254Z,601.00
2024-04-10T00:25:18.276Z,602.00
2024-04-10T00:26:18.315Z,603.00
2024-04-10T00:27:18.258Z,605.00
2024-04-10T00:28:18.258Z,602.00
2024-04-10T00:29:18.310Z,601.00
2024-04-10T00:30:18.279Z,605.00
2024-04-10T00:31:18.301Z,605.00
2024-04-10T00:32:18.425Z,603.00
2024-04-10T00:33:18.358Z,607.00
2024-04-10T00:34:18.350Z,606.00
2024-04-10T00:35:18.379Z,606.00
2024-04-10T00:36:18.307Z,606.00
2024-04-10T00:37:18.298Z,605.00
2024-04-10T00:38:18.346Z,606.00
2024-04-10T00:39:18.277Z,612.00
2024-04-10T00:40:18.299Z,608.00
2024-04-10T00:41:18.372Z,607.00
2024-04-10T00:42:18.300Z,603.00
2024-04-10T00:43:18.302Z,601.00
2024-04-10T00:44:18.356Z,608.00
2024-04-10T00:45:18.370Z,606.00
2024-04-10T00:46:18.447Z,605.00
2024-04-10T00:47:18.548Z,605.00
2024-04-10T00:48:18.616Z,605.00
2024-04-10T00:49:18.539Z,606.00
2024-04-10T00:50:18.584Z,603.00
2024-04-10T00:51:18.582Z,607.00
2024-04-10T00:52:18.671Z,604.00
2024-04-10T00:53:18.647Z,605.00
2024-04-10T00:54:18.688Z,607.00
2024-04-10T00:55:18.799Z,601.00
2024-04-10T00:56:21.487Z,608.00
2024-04-10T00:57:18.827Z,608.00
2024-04-10T00:58:18.826Z,608.00
2024-04-10T00:59:18.945Z,609.00
2024-04-10T01:00:18.850Z,608.00
2024-04-10T01:01:18.922Z,605.00
2024-04-10T01:02:19.051Z,610.00
2024-04-10T01:03:18.910Z,607.00
2024-04-10T01:04:18.989Z,609.00
2024-04-10T01:05:18.926Z,603.00
2024-04-10T01:06:18.887Z,609.00
2024-04-10T01:07:18.892Z,606.00
2024-04-10T01:08:18.956Z,606.00
2024-04-10T01:09:18.895Z,602.00
2024-04-10T01:10:18.899Z,602.00
2024-04-10T01:11:19.048Z,608.00
2024-04-10T01:12:18.914Z,607.00
2024-04-10T01:13:18.923Z,606.00
2024-04-10T01:14:18.897Z,606.00
2024-04-10T01:15:18.880Z,606.00
2024-04-10T01:16:18.996Z,604.00
2024-04-10T01:17:19.017Z,606.00
2024-04-10T01:18:18.962Z,610.00
2024-04-10T01:19:18.914Z,615.00
2024-04-10T01:20:19.073Z,604.00
2024-04-10T01:21:18.947Z,609.00
2024-04-10T01:22:18.930Z,610.00
2024-04-10T01:23:19.053Z,602.00
2024-04-10T01:24:19.019Z,604.00
2024-04-10T01:25:19.090Z,605.00
2024-04-10T01:26:19.274Z,607.00
2024-04-10T01:27:19.130Z,604.00
2024-04-10T01:28:19.175Z,607.00
2024-04-10T01:29:19.245Z,607.00
2024-04-10T01:30:19.254Z,612.00
2024-04-10T01:31:19.292Z,611.00
2024-04-10T01:32:19.383Z,605.00
2024-04-10T01:33:19.536Z,607.00
2024-04-10T01:34:19.438Z,604.00
2024-04-10T01:35:19.485Z,605.00
2024-04-10T01:36:19.513Z,608.00
2024-04-10T01:37:19.602Z,606.00
2024-04-10T01:38:19.690Z,607.00
2024-04-10T01:39:19.704Z,609.00
2024-04-10T01:40:19.751Z,603.00
2024-04-10T01:41:19.868Z,606.00
2024-04-10T01:42:19.876Z,608.00
2024-04-10T01:43:29.627Z,600.00
2024-04-10T01:44:29.694Z,600.00
2024-04-10T01:45:29.679Z,600.00
2024-04-10T01:46:29.674Z,600.00
2024-04-10T01:47:29.827Z,600.00
2024-04-10T01:48:29.778Z,603.00
2024-04-10T01:49:29.700Z,601.00
2024-04-10T01:50:29.734Z,600.00
2024-04-10T01:51:29.720Z,602.00
2024-04-10T01:52:29.694Z,605.00
2024-04-10T01:53:29.761Z,602.00
2024-04-10T01:54:29.761Z,600.00
2024-04-10T01:55:29.752Z,607.00
2024-04-10T01:56:29.914Z,611.00
2024-04-10T01:57:29.764Z,608.00
2024-04-10T01:58:29.753Z,607.00
2024-04-10T01:59:29.870Z,603.00
2024-04-10T02:00:29.768Z,611.00
2024-04-10T02:01:29.770Z,610.00
2024-04-10T02:02:29.913Z,607.00
2024-04-10T02:03:29.903Z,610.00
2024-04-10T02:04:29.829Z,604.00
2024-04-10T02:05:29.936Z,606.00
2024-04-10T02:06:29.765Z,605.00
2024-04-10T02:07:29.844Z,607.00
2024-04-10T02:08:29.953Z,603.00
2024-04-10T02:09:29.889Z,602.00
2024-04-10T02:10:29.953Z,599.00
2024-04-10T02:11:30.152Z,607.00
2024-04-10T02:12:29.983Z,603.00
2024-04-10T02:13:30.004Z,603.00
2024-04-10T02:14:30.133Z,601.00
2024-04-10T02:15:30.112Z,607.00
2024-04-10T02:16:30.181Z,605.00
2024-04-10T02:17:30.263Z,606.00
2024-04-10T02:18:30.238Z,608.00
2024-04-10T02:19:30.253Z,606.00
2024-04-10T02:20:30.368Z,609.00
2024-04-10T02:21:30.337Z,608.00
2024-04-10T02:22:30.398Z,610.00
2024-04-10T02:23:30.550Z,604.00
2024-04-10T02:24:30.515Z,607.00
2024-04-10T02:25:30.581Z,608.00
2024-04-10T02:26:30.780Z,608.00
2024-04-10T02:27:30.686Z,608.00
2024-04-10T02:28:30.744Z,605.00
2024-04-10T02:29:30.920Z,609.00
2024-04-10T02:30:30.887Z,606.00
2024-04-10T02:31:30.961Z,604.00
2024-04-10T02:32:31.103Z,603.00
2024-04-10T02:33:31.094Z,601.00
2024-04-10T02:34:31.119Z,606.00
2024-04-10T02:35:31.279Z,604.00
2024-04-10T02:36:31.223Z,606.00
2024-04-10T02:37:31.282Z,606.00
2024-04-10T02:38:31.457Z,609.00
2024-04-10T02:39:31.454Z,606.00
2024-04-10T02:40:31.478Z,604.00
2024-04-10T02:41:31.751Z,607.00
2024-04-10T02:42:31.613Z,604.00
2024-04-10T02:43:31.673Z,604.00
2024-04-10T02:44:31.927Z,605.00
2024-04-10T02:45:31.810Z,605.00
2024-04-10T02:46:31.925Z,605.00
2024-04-10T02:47:31.977Z,603.00
2024-04-10T02:48:32.049Z,601.00
2024-04-10T02:49:32.042Z,602.00
2024-04-10T02:50:32.234Z,603.00
2024-04-10T02:51:32.143Z,606.00
2024-04-10T02:52:32.207Z,606.00
2024-04-10T02:53:32.324Z,603.00
2024-04-10T02:54:32.333Z,605.00
2024-04-10T02:55:32.398Z,607.00
2024-04-10T02:56:32.569Z,601.00
2024-04-10T02:57:32.535Z,605.00
2024-04-10T02:58:32.654Z,598.00
2024-04-10T02:59:32.772Z,605.00
2024-04-10T03:00:32.748Z,609.00
2024-04-10T03:01:32.835Z,602.00
2024-04-10T03:02:32.979Z,604.00
2024-04-10T03:03:33.286Z,606.00
2024-04-10T03:04:33.148Z,606.00
2024-04-10T03:05:33.171Z,605.00
2024-04-10T03:06:33.181Z,607.00
2024-04-10T03:07:33.228Z,601.00
2024-04-10T03:08:33.447Z,602.00
2024-04-10T03:09:33.368Z,602.00
2024-04-10T03:10:33.393Z,604.00
2024-04-10T03:11:33.542Z,608.00
2024-04-10T03:12:33.564Z,607.00
2024-04-10T03:13:33.618Z,605.00
2024-04-10T03:14:33.821Z,606.00
2024-04-10T03:15:33.737Z,603.00
2024-04-10T03:16:33.930Z,607.00
2024-04-10T03:17:34.156Z,610.00
2024-04-10T03:18:33.960Z,604.00
2024-04-10T03:19:34.025Z,609.00
2024-04-10T03:20:34.180Z,604.00
2024-04-10T03:21:34.199Z,606.00
2024-04-10T03:22:34.250Z,601.00
2024-04-10T03:23:34.635Z,609.00
2024-04-10T03:24:34.398Z,601.00
2024-04-10T03:25:34.442Z,603.00
2024-04-10T03:26:34.584Z,609.00
2024-04-10T03:27:34.600Z,606.00
2024-04-10T03:28:34.672Z,604.00
2024-04-10T03:29:34.747Z,603.00
2024-04-10T03:30:34.782Z,609.00
2024-04-10T03:31:34.858Z,610.00
2024-04-10T03:32:35.038Z,606.00
2024-04-10T03:33:35.136Z,606.00
2024-04-10T03:34:35.059Z,604.00
2024-04-10T03:35:35.158Z,603.00
2024-04-10T03:36:35.184Z,605.00
2024-04-10T03:37:35.239Z,602.00
2024-04-10T03:38:35.461Z,609.00
2024-04-10T03:39:35.378Z,604.00
2024-04-10T03:40:35.496Z,600.00
2024-04-10T03:41:35.805Z,611.00
2024-04-10T03:42:35.601Z,606.00
2024-04-10T03:43:35.684Z,609.00
2024-04-10T03:44:35.830Z,610.00
2024-04-10T03:45:35.883Z,610.00
2024-04-10T03:46:35.949Z,605.00
2024-04-10T03:47:36.096Z,606.00
2024-04-10T03:48:36.169Z,603.00
2024-04-10T03:49:36.068Z,607.00
2024-04-10T03:50:36.312Z,608.00
2024-04-10T03:51:36.211Z,604.00
2024-04-10T03:52:36.237Z,605.00
2024-04-10T03:53:36.461Z,606.00
2024-04-10T03:54:36.384Z,604.00
2024-04-10T03:55:36.435Z,607.00
2024-04-10T03:56:36.557Z,608.00
2024-04-10T03:57:36.551Z,606.00
2024-04-10T03:58:36.607Z,606.00
2024-04-10T03:59:36.690Z,604.00
2024-04-10T04:00:36.743Z,608.00
2024-04-10T04:01:36.800Z,609.00
2024-04-10T04:02:36.953Z,608.00
2024-04-10T04:03:37.067Z,607.00
2024-04-10T04:04:37.095Z,608.00
2024-04-10T04:05:37.153Z,607.00
2024-04-10T04:06:45.590Z,600.00
2024-04-10T04:07:45.579Z,600.00
2024-04-10T04:08:45.601Z,600.00
2024-04-10T04:09:45.600Z,600.00
2024-04-10T04:10:45.622Z,600.00
2024-04-10T04:11:45.621Z,604.00
2024-04-10T04:12:45.583Z,602.00
2024-04-10T04:13:45.588Z,599.00
2024-04-10T04:14:45.582Z,603.00
2024-04-10T04:15:45.765Z,603.00
2024-04-10T04:16:45.594Z,607.00
2024-04-10T04:17:45.641Z,608.00
2024-04-10T04:18:45.614Z,604.00
2024-04-10T04:19:45.619Z,605.00
2024-04-10T04:20:45.650Z,601.00
2024-04-10T04:21:45.623Z,606.00
2024-04-10T04:22:45.626Z,604.00
2024-04-10T04:23:45.626Z,605.00
2024-04-10T04:24:45.625Z,606.00
2024-04-10T04:25:45.636Z,604.00
2024-04-10T04:26:45.661Z,600.00
2024-04-10T04:27:45.637Z,608.00
2024-04-10T04:28:45.656Z,606.00
2024-04-10T04:29:45.646Z,601.00
2024-04-10T04:30:45.640Z,608.00
2024-04-10T04:31:53.390Z,600.00
2024-04-10T04:32:53.479Z,600.00
2024-04-10T04:33:53.475Z,600.00
2024-04-10T04:34:53.420Z,600.00
2024-04-10T04:35:53.393Z,600.00
2024-04-10T04:36:53.395Z,600.00
2024-04-10T04:37:53.494Z,601.00
2024-04-10T04:38:53.415Z,604.00
2024-04-10T04:39:53.413Z,603.00
2024-04-10T04:40:53.428Z,602.00
2024-04-10T04:41:53.418Z,603.00
2024-04-10T04:42:53.388Z,608.00
2024-04-10T04:43:53.481Z,605.00
2024-04-10T04:44:53.431Z,603.00
2024-04-10T04:45:53.406Z,601.00
2024-04-10T04:46:53.488Z,608.00
2024-04-10T04:47:53.446Z,606.00
2024-04-10T04:48:53.528Z,603.00
2024-04-10T04:49:53.447Z,604.00
2024-04-10T04:50:54.970Z,603.00
2024-04-10T04:51:53.405Z,606.00
2024-04-10T04:52:53.455Z,608.00
2024-04-10T04:53:53.432Z,606.00
2024-04-10T04:54:53.453Z,606.00
2024-04-10T04:55:53.495Z,606.00
2024-04-10T04:56:53.503Z,607.00
2024-04-10T04:57:53.467Z,605.00
2024-04-10T04:58:53.535Z,600.00
2024-04-10T04:59:53.486Z,603.00
2024-04-10T05:02:22.574Z,600.00
2024-04-10T05:02:58.549Z,603.00
2024-04-10T05:03:58.522Z,613.00
2024-04-10T05:04:58.480Z,626.00
2024-04-10T05:05:58.418Z,640.00
2024-04-10T05:06:58.433Z,654.00
2024-04-10T05:07:58.454Z,658.00
2024-04-10T05:08:58.440Z,648.00
2024-04-10T05:09:58.405Z,645.00
2024-04-10T05:10:58.457Z,635.00
2024-04-10T05:12:00.790Z,627.00
2024-04-10T05:12:58.436Z,628.00
2024-04-10T05:13:58.523Z,628.00
2024-04-10T05:14:58.443Z,624.00
2024-04-10T05:15:58.432Z,623.00
2024-04-10T05:16:58.473Z,619.00
2024-04-10T05:17:58.563Z,621.00
2024-04-10T05:18:58.449Z,616.00
2024-04-10T05:19:58.515Z,617.00
2024-04-10T05:20:58.447Z,615.00
2024-04-10T05:21:58.452Z,610.00
2024-04-10T05:22:58.570Z,613.00
2024-04-10T05:23:58.460Z,610.00
2024-04-10T05:24:58.525Z,612.00
2024-04-10T05:25:58.510Z,612.00
2024-04-10T05:26:58.469Z,607.00
2024-04-10T05:27:58.484Z,607.00
2024-04-10T05:28:58.598Z,616.00
2024-04-10T05:29:58.486Z,612.00
2024-04-10T05:30:58.464Z,612.00
2024-04-10T05:31:58.517Z,612.00
2024-04-10T05:32:58.628Z,617.00
2024-04-10T05:33:58.538Z,609.00
2024-04-10T05:34:58.547Z,615.00
2024-04-10T05:35:58.508Z,613.00
2024-04-10T05:36:58.560Z,608.00
2024-04-10T05:37:59.156Z,606.00
2024-04-10T05:38:58.671Z,603.00
2024-04-10T05:39:58.670Z,602.00
2024-04-10T05:40:58.878Z,607.00
2024-04-10T05:41:58.883Z,594.00
2024-04-10T05:42:59.065Z,597.00
2024-04-10T05:43:59.071Z,599.00
2024-04-10T05:45:00.151Z,602.00
2024-04-10T05:46:21.752Z,602.00
2024-04-10T05:47:00.105Z,602.00
2024-04-10T05:47:59.670Z,602.00
2024-04-10T05:48:59.365Z,589.00
2024-04-10T05:49:59.299Z,564.00
2024-04-10T05:50:59.284Z,545.00
2024-04-10T05:51:59.245Z,549.00
2024-04-10T05:53:00.474Z,576.00
2024-04-10T05:53:59.219Z,600.00
2024-04-10T05:54:59.290Z,601.00
2024-04-10T05:55:59.300Z,609.00
2024-04-10T05:56:59.372Z,607.00
2024-04-10T05:57:59.291Z,599.00
2024-04-10T05:58:59.299Z,599.00
2024-04-10T05:59:59.411Z,603.00
2024-04-10T06:00:59.375Z,606.00
2024-04-10T06:01:59.323Z,602.00
2024-04-10T06:02:59.451Z,609.00
2024-04-10T06:03:59.449Z,610.00
2024-04-10T06:04:59.281Z,614.00
2024-04-10T06:05:59.282Z,617.00
2024-04-10T06:06:59.268Z,621.00
2024-04-10T06:07:59.337Z,618.00
2024-04-10T06:08:59.284Z,621.00
2024-04-10T06:09:59.292Z,628.00
2024-04-10T06:10:59.307Z,629.00
2024-04-10T06:12:00.247Z,625.00
2024-04-10T06:12:59.287Z,626.00
2024-04-10T06:13:59.330Z,632.00
2024-04-10T06:14:59.309Z,644.00
2024-04-10T06:15:59.406Z,655.00
2024-04-10T06:16:59.350Z,687.00
2024-04-10T06:17:59.370Z,692.00
2024-04-10T06:18:59.335Z,703.00
2024-04-10T06:19:59.434Z,701.00
2024-04-10T06:20:59.358Z,712.00
2024-04-10T06:21:59.318Z,707.00
2024-04-10T06:22:59.425Z,730.00
2024-04-10T06:23:59.338Z,745.00
2024-04-10T06:24:59.341Z,759.00
2024-04-10T06:25:59.427Z,761.00
2024-04-10T06:26:59.348Z,758.00
2024-04-10T06:27:59.364Z,752.00
2024-04-10T06:28:59.414Z,741.00
2024-04-10T06:29:59.354Z,721.00
2024-04-10T06:30:59.418Z,716.00
2024-04-10T06:31:59.408Z,678.00
2024-04-10T06:32:59.486Z,687.00
2024-04-10T06:33:59.537Z,665.00
2024-04-10T06:34:59.676Z,685.00
2024-04-10T06:35:59.557Z,664.00
2024-04-10T06:36:59.632Z,648.00
2024-04-10T06:37:59.752Z,649.00
2024-04-10T06:38:59.711Z,639.00
2024-04-10T06:39:59.755Z,652.00
2024-04-10T06:40:59.900Z,692.00
2024-04-10T06:41:59.845Z,669.00
2024-04-10T06:43:00.078Z,698.00
2024-04-10T06:44:00.021Z,726.00
2024-04-10T06:45:00.041Z,774.00
2024-04-10T06:46:00.174Z,825.00
2024-04-10T06:47:00.444Z,854.00
2024-04-10T06:48:00.455Z,911.00
2024-04-10T06:49:00.622Z,949.00
2024-04-10T06:50:00.529Z,998.00
2024-04-10T06:51:00.556Z,1053.00
2024-04-10T06:52:00.679Z,1095.00
2024-04-10T06:53:00.784Z,1136.00
2024-04-10T06:54:00.775Z,1161.00
2024-04-10T06:55:00.854Z,1199.00
2024-04-10T06:56:00.987Z,1234.00
2024-04-10T06:57:00.968Z,1273.00
2024-04-10T06:58:01.043Z,1300.00
2024-04-10T06:59:01.128Z,1328.00
2024-04-10T07:00:01.266Z,1361.00
2024-04-10T07:01:01.642Z,1392.00
2024-04-10T07:02:01.370Z,1424.00
2024-04-10T07:03:01.389Z,1439.00
2024-04-10T07:04:01.491Z,1473.00
2024-04-10T07:05:01.664Z,1501.00
2024-04-10T07:06:01.628Z,1514.00
2024-04-10T07:07:01.703Z,1535.00
2024-04-10T07:08:14.902Z,600.00
2024-04-10T07:09:14.868Z,600.00
2024-04-10T07:10:14.879Z,600.00
2024-04-10T07:11:17.583Z,600.00
2024-04-10T07:12:16.663Z,600.00
2024-04-10T07:13:14.893Z,600.00
2024-04-10T07:14:14.923Z,600.00
2024-04-10T07:15:14.927Z,600.00
2024-04-10T07:16:14.903Z,600.00
2024-04-10T07:17:14.993Z,612.00
2024-04-10T07:18:15.510Z,616.00
2024-04-10T07:19:15.030Z,625.00
2024-04-10T07:20:15.247Z,631.00
2024-04-10T07:21:15.269Z,640.00
2024-04-10T07:22:15.234Z,643.00
2024-04-10T07:23:15.454Z,653.00
2024-04-10T07:24:15.343Z,658.00
2024-04-10T07:25:15.575Z,680.00
2024-04-10T07:26:15.594Z,696.00
2024-04-10T07:27:15.668Z,700.00
2024-04-10T07:28:15.510Z,723.00
2024-04-10T07:29:15.599Z,746.00
2024-04-10T07:30:15.619Z,760.00
2024-04-10T07:31:15.736Z,775.00
2024-04-10T07:32:15.900Z,807.00
2024-04-10T07:33:15.964Z,810.00
2024-04-10T07:34:16.373Z,819.00
2024-04-10T07:35:20.925Z,832.00
2024-04-10T07:36:16.093Z,825.00
2024-04-10T07:37:16.086Z,793.00
2024-04-10T07:38:16.131Z,717.00
2024-04-10T07:39:16.088Z,658.00
2024-04-10T07:40:16.105Z,607.00
2024-04-10T07:41:16.153Z,598.00
2024-04-10T07:42:16.133Z,599.00
2024-04-10T07:43:16.070Z,583.00
2024-04-10T07:44:16.126Z,579.00
2024-04-10T07:45:16.111Z,577.00
2024-04-10T07:46:16.198Z,581.00
2024-04-10T07:47:16.647Z,587.00
2024-04-10T07:48:16.508Z,597.00
2024-04-10T07:49:16.551Z,600.00
2024-04-10T07:50:16.466Z,600.00
2024-04-10T07:51:16.474Z,600.00
2024-04-10T07:52:16.543Z,600.00
2024-04-10T07:53:16.643Z,600.00
2024-04-10T07:54:16.653Z,600.00
2024-04-10T07:55:16.634Z,600.00
2024-04-10T07:56:16.920Z,600.00
2024-04-10T07:57:16.724Z,600.00
2024-04-10T07:58:16.834Z,602.00
2024-04-10T07:59:16.817Z,600.00
2024-04-10T08:00:16.861Z,601.00
2024-04-10T08:01:16.967Z,600.00
2024-04-10T08:02:16.930Z,600.00
2024-04-10T08:03:16.983Z,602.00
2024-04-10T08:04:18.120Z,600.00
2024-04-10T08:05:17.139Z,600.00
2024-04-10T08:06:17.168Z,602.00
2024-04-10T08:07:17.259Z,605.00
2024-04-10T08:08:17.422Z,598.00
2024-04-10T08:09:18.347Z,598.00
2024-04-10T08:10:17.380Z,600.00
2024-04-10T08:11:17.515Z,599.00
2024-04-10T08:12:17.595Z,595.00
2024-04-10T08:13:17.469Z,591.00
2024-04-10T08:14:17.467Z,600.00
2024-04-10T08:15:17.369Z,610.00
2024-04-10T08:16:17.857Z,601.00
2024-04-10T08:17:17.515Z,602.00
2024-04-10T08:18:17.491Z,601.00
2024-04-10T08:19:17.384Z,599.00
2024-04-10T08:20:17.557Z,600.00
2024-04-10T08:21:17.405Z,603.00
2024-04-10T08:22:17.410Z,600.00
2024-04-10T08:23:17.459Z,601.00
2024-04-10T08:24:17.501Z,606.00
2024-04-10T08:25:17.597Z,601.00
2024-04-10T08:26:17.873Z,603.00
2024-04-10T08:27:17.808Z,600.00
2024-04-10T08:28:17.861Z,602.00
2024-04-10T08:29:18.028Z,601.00
2024-04-10T08:30:18.039Z,610.00
2024-04-10T08:31:18.143Z,603.00
2024-04-10T08:32:18.239Z,607.00
2024-04-10T08:33:18.533Z,610.00
2024-04-10T08:34:18.545Z,624.00
2024-04-10T08:35:18.819Z,648.00
2024-04-10T08:36:18.682Z,679.00
2024-04-10T08:37:18.744Z,712.00
2024-04-10T08:38:18.946Z,755.00
2024-04-10T08:39:18.919Z,796.00
2024-04-10T08:40:19.089Z,835.00
2024-04-10T08:41:19.245Z,878.00
2024-04-10T08:42:19.344Z,904.00
2024-04-10T08:43:19.579Z,928.00
2024-04-10T08:44:19.472Z,954.00
2024-04-10T08:45:19.644Z,967.00
2024-04-10T08:46:19.734Z,979.00
2024-04-10T08:47:19.864Z,989.00
2024-04-10T08:48:19.978Z,1003.00
2024-04-10T08:49:19.965Z,1006.00
2024-04-10T08:50:20.100Z,1017.00
2024-04-10T08:51:20.279Z,1034.00
2024-04-10T08:52:20.363Z,1044.00
2024-04-10T08:53:20.493Z,1013.00
2024-04-10T08:54:20.477Z,1012.00
2024-04-10T08:55:20.559Z,1025.00
2024-04-10T08:56:20.688Z,1029.00
2024-04-10T08:57:20.864Z,1047.00
2024-04-10T08:58:20.884Z,1047.00
2024-04-10T08:59:20.978Z,1032.00
2024-04-10T09:00:21.166Z,1034.00
2024-04-10T09:01:21.324Z,1013.00
2024-04-10T09:02:21.337Z,984.00
2024-04-10T09:03:21.594Z,931.00
2024-04-10T09:04:21.545Z,899.00
2024-04-10T09:05:21.629Z,866.00
2024-04-10T09:06:21.751Z,848.00
2024-04-10T09:07:21.765Z,844.00
2024-04-10T09:08:21.993Z,833.00
2024-04-10T09:09:22.094Z,806.00
2024-04-10T09:10:22.135Z,824.00
2024-04-10T09:11:22.272Z,837.00
2024-04-10T09:12:22.304Z,843.00
2024-04-10T09:13:22.460Z,879.00
2024-04-10T09:14:22.539Z,890.00
2024-04-10T09:15:22.627Z,902.00
2024-04-10T09:16:22.832Z,917.00
2024-04-10T09:17:22.925Z,915.00
2024-04-10T09:18:22.968Z,881.00
2024-04-10T09:19:23.033Z,859.00
2024-04-10T09:20:23.136Z,847.00
2024-04-10T09:21:23.234Z,830.00
2024-04-10T09:22:23.317Z,797.00
2024-04-10T09:23:23.553Z,799.00
2024-04-10T09:24:23.538Z,785.00
2024-04-10T09:25:23.872Z,796.00
2024-04-10T09:26:23.852Z,794.00
2024-04-10T09:27:23.899Z,807.00
2024-04-10T09:28:23.954Z,805.00
2024-04-10T09:29:24.145Z,830.00
2024-04-10T09:30:24.185Z,851.00
2024-04-10T09:31:24.297Z,875.00
2024-04-10T09:32:24.433Z,894.00
2024-04-10T09:33:24.734Z,890.00
2024-04-10T09:34:24.855Z,876.00
2024-04-10T09:35:24.902Z,880.00
2024-04-10T09:36:24.776Z,900.00
2024-04-10T09:37:24.883Z,917.00
2024-04-10T09:38:25.058Z,919.00
2024-04-10T09:39:25.095Z,917.00
2024-04-10T09:40:25.209Z,897.00
2024-04-10T09:41:25.370Z,900.00
2024-04-10T09:42:25.368Z,900.00
2024-04-10T09:43:26.126Z,918.00
2024-04-10T09:44:25.631Z,949.00
2024-04-10T09:45:25.766Z,973.00
2024-04-10T09:46:25.813Z,1065.00
2024-04-10T09:47:25.994Z,1108.00
2024-04-10T09:48:26.332Z,1144.00
2024-04-10T09:49:26.138Z,1163.00
2024-04-10T09:50:26.283Z,1186.00
2024-04-10T09:51:26.253Z,1209.00
2024-04-10T09:52:26.388Z,1222.00
2024-04-10T09:53:26.565Z,1175.00
2024-04-10T09:54:26.621Z,1159.00
2024-04-10T09:55:26.714Z,1158.00
2024-04-10T09:56:26.855Z,1150.00
2024-04-10T09:57:26.933Z,1146.00
2024-04-10T09:58:27.072Z,1161.00
2024-04-10T09:59:27.276Z,1171.00
2024-04-10T10:00:27.239Z,1169.00
2024-04-10T10:01:27.398Z,1164.00
2024-04-10T10:02:27.552Z,1167.00
2024-04-10T10:03:27.820Z,1146.00
2024-04-10T10:04:27.689Z,1129.00
2024-04-10T10:05:31.722Z,1111.00
2024-04-10T10:06:28.838Z,1083.00
2024-04-10T10:07:27.794Z,1073.00
2024-04-10T10:08:28.028Z,1068.00
2024-04-10T10:09:27.774Z,1065.00
2024-04-10T10:10:27.811Z,1049.00
2024-04-10T10:11:27.917Z,1041.00
2024-04-10T10:12:27.902Z,1032.00
2024-04-10T10:13:27.787Z,1031.00
2024-04-10T10:14:27.843Z,1008.00
2024-04-10T10:15:27.771Z,1002.00
2024-04-10T10:16:29.331Z,1009.00
2024-04-10T10:17:27.846Z,1036.00
2024-04-10T10:18:33.297Z,1051.00
2024-04-10T10:19:28.871Z,1052.00
2024-04-10T10:20:27.902Z,1055.00
2024-04-10T10:21:27.776Z,1059.00
2024-04-10T10:22:27.787Z,1061.00
2024-04-10T10:23:27.822Z,1097.00
2024-04-10T10:24:27.845Z,1118.00
2024-04-10T10:25:27.813Z,1132.00
2024-04-10T10:26:27.825Z,1139.00
2024-04-10T10:27:27.822Z,1146.00
2024-04-10T10:28:28.008Z,1139.00
2024-04-10T10:29:28.140Z,1155.00
2024-04-10T10:30:28.182Z,1154.00
2024-04-10T10:31:28.286Z,1132.00
2024-04-10T10:32:28.409Z,1127.00
2024-04-10T10:33:28.671Z,1113.00
2024-04-10T10:34:29.215Z,1106.00
2024-04-10T10:35:28.593Z,1101.00
2024-04-10T10:36:28.592Z,1104.00
2024-04-10T10:37:28.670Z,1121.00
2024-04-10T10:38:28.702Z,1145.00
2024-04-10T10:39:29.036Z,1160.00
2024-04-10T10:40:28.768Z,1171.00
2024-04-10T10:41:28.755Z,1181.00
2024-04-10T10:42:28.809Z,1191.00
2024-04-10T10:43:28.919Z,1199.00
2024-04-10T10:44:29.031Z,1218.00
2024-04-10T10:45:29.111Z,1232.00
2024-04-10T10:46:29.205Z,1223.00
2024-04-10T10:47:29.420Z,1248.00
2024-04-10T10:48:29.488Z,1269.00
2024-04-10T10:49:29.628Z,1263.00
2024-04-10T10:50:29.694Z,1264.00
2024-04-10T10:51:29.728Z,1284.00
2024-04-10T10:52:29.842Z,1289.00
2024-04-10T10:53:29.945Z,1304.00
2024-04-10T10:54:30.071Z,1293.00
2024-04-10T10:55:30.128Z,1315.00
2024-04-10T10:56:30.220Z,1340.00
2024-04-10T10:57:30.294Z,1359.00
2024-04-10T10:58:30.347Z,1369.00
2024-04-10T10:59:30.482Z,1385.00
2024-04-10T11:00:30.553Z,1385.00
2024-04-10T11:01:30.629Z,1390.00
2024-04-10T11:02:30.771Z,1372.00
2024-04-10T11:03:31.218Z,1345.00
2024-04-10T11:04:31.145Z,1329.00
2024-04-10T11:05:31.054Z,1304.00
2024-04-10T11:06:31.170Z,1254.00
2024-04-10T11:07:31.151Z,1230.00
2024-04-10T11:08:31.300Z,1200.00
2024-04-10T11:09:31.348Z,1197.00
2024-04-10T11:10:31.487Z,1181.00
2024-04-10T11:11:31.779Z,1198.00
2024-04-10T11:12:31.752Z,1205.00
2024-04-10T11:13:31.723Z,1204.00
2024-04-10T11:14:32.003Z,1208.00
2024-04-10T11:15:31.998Z,1232.00
2024-04-10T11:16:32.097Z,1222.00
2024-04-10T11:17:32.251Z,1234.00
2024-04-10T11:18:32.359Z,1197.00
2024-04-10T11:19:39.188Z,1196.00
2024-04-10T11:20:33.631Z,1197.00
2024-04-10T11:21:32.610Z,1198.00
2024-04-10T11:22:32.653Z,1204.00
2024-04-10T11:23:32.781Z,1178.00
2024-04-10T11:24:32.781Z,1185.00
2024-04-10T11:25:32.780Z,1201.00
2024-04-10T11:26:32.897Z,1242.00
2024-04-10T11:27:33.046Z,1282.00
2024-04-10T11:28:33.117Z,1333.00
2024-04-10T11:29:33.623Z,1375.00
2024-04-10T11:30:33.277Z,1406.00
2024-04-10T11:31:33.339Z,1446.00
2024-04-10T11:32:33.526Z,1482.00
2024-04-10T11:33:33.737Z,1505.00
2024-04-10T11:34:34.165Z,1515.00
2024-04-10T11:35:33.687Z,1498.00
2024-04-10T11:36:33.779Z,1504.00
2024-04-10T11:37:33.891Z,1520.00
2024-04-10T11:38:33.959Z,1532.00
2024-04-10T11:39:34.067Z,1527.00
2024-04-10T11:40:34.113Z,1539.00
2024-04-10T11:41:34.290Z,1539.00
2024-04-10T11:42:34.282Z,1529.00
2024-04-10T11:43:34.391Z,1539.00
2024-04-10T11:44:34.518Z,1533.00
2024-04-10T11:45:34.565Z,1535.00
2024-04-10T11:46:34.615Z,1552.00
2024-04-10T11:47:34.887Z,1569.00
2024-04-10T11:48:35.037Z,1573.00
2024-04-10T11:49:34.896Z,1566.00
2024-04-10T11:50:34.992Z,1576.00
2024-04-10T11:51:35.054Z,1565.00
2024-04-10T11:52:37.307Z,1582.00
2024-04-10T11:53:35.212Z,1598.00
2024-04-10T11:54:35.137Z,1575.00
2024-04-10T11:55:35.171Z,1577.00
2024-04-10T11:56:35.178Z,1579.00
2024-04-10T11:57:35.145Z,1578.00
2024-04-10T11:58:35.176Z,1578.00
2024-04-10T11:59:35.249Z,1576.00
2024-04-10T12:00:35.171Z,1593.00
2024-04-10T12:01:35.193Z,1594.00
2024-04-10T12:02:35.250Z,1603.00
2024-04-10T12:03:35.278Z,1600.00
2024-04-10T12:04:35.230Z,1599.00
2024-04-10T12:05:35.226Z,1606.00
2024-04-10T12:06:35.165Z,1601.00
2024-04-10T12:07:35.173Z,1591.00
2024-04-10T12:08:35.224Z,1583.00
2024-04-10T12:09:35.592Z,1568.00
2024-04-10T12:10:35.192Z,1574.00
2024-04-10T12:11:35.355Z,1557.00
2024-04-10T12:12:35.345Z,1553.00
2024-04-10T12:13:35.200Z,1549.00
2024-04-10T12:14:35.191Z,1538.00
2024-04-10T12:15:35.180Z,1528.00
2024-04-10T12:16:35.291Z,1522.00
2024-04-10T12:17:35.434Z,1524.00
2024-04-10T12:18:35.311Z,1504.00
2024-04-10T12:19:35.608Z,1505.00
2024-04-10T12:20:35.263Z,1504.00
2024-04-10T12:21:35.157Z,1496.00
2024-04-10T12:22:35.206Z,1485.00
2024-04-10T12:23:35.374Z,1498.00
2024-04-10T12:24:35.206Z,1480.00